sensor_id;sensor_type;location;lat;lon;timestamp;P1;durP1;ratioP1;P2;durP2;ratioP2
50393;SDS011;36308;46.312;25.288;2023-04-24T00:00:15;6.35;;;3.78;;
50393;SDS011;36308;46.312;25.288;2023-04-24T00:02:42;6.75;;;4.00;;
50393;SDS011;36308;46.312;25.288;2023-04-24T00:05:13;4.45;;;3.40;;
50393;SDS011;36308;46.312;25.288;2023-04-24T00:07:39;6.00;;;3.75;;
50393;SDS011;36308;46.312;25.288;2023-04-24T00:10:06;6.30;;;3.88;;
50393;SDS011;36308;46.312;25.288;2023-04-24T00:12:32;8.27;;;3.92;;
50393;SDS011;36308;46.312;25.288;2023-04-24T00:14:57;5.18;;;3.90;;
50393;SDS011;36308;46.312;25.288;2023-04-24T00:17:23;5.25;;;3.78;;
50393;SDS011;36308;46.312;25.288;2023-04-24T00:19:48;5.50;;;3.72;;
50393;SDS011;36308;46.312;25.288;2023-04-24T00:22:16;6.45;;;3.75;;
50393;SDS011;36308;46.312;25.288;2023-04-24T00:24:42;4.88;;;3.40;;
50393;SDS011;36308;46.312;25.288;2023-04-24T00:27:07;5.95;;;3.72;;
50393;SDS011;36308;46.312;25.288;2023-04-24T00:29:33;7.55;;;3.72;;
50393;SDS011;36308;46.312;25.288;2023-04-24T00:31:58;6.28;;;4.03;;
50393;SDS011;36308;46.312;25.288;2023-04-24T00:34:24;5.43;;;3.80;;
50393;SDS011;36308;46.312;25.288;2023-04-24T00:36:50;6.75;;;4.00;;
50393;SDS011;36308;46.312;25.288;2023-04-24T00:39:18;6.15;;;3.92;;
50393;SDS011;36308;46.312;25.288;2023-04-24T00:41:44;7.28;;;4.32;;
50393;SDS011;36308;46.312;25.288;2023-04-24T00:44:11;6.70;;;4.35;;
50393;SDS011;36308;46.312;25.288;2023-04-24T00:46:36;5.55;;;4.13;;
50393;SDS011;36308;46.312;25.288;2023-04-24T00:49:02;5.70;;;4.00;;
50393;SDS011;36308;46.312;25.288;2023-04-24T00:51:29;8.35;;;3.90;;
50393;SDS011;36308;46.312;25.288;2023-04-24T00:53:57;6.05;;;3.83;;
50393;SDS011;36308;46.312;25.288;2023-04-24T00:56:26;6.22;;;4.35;;
50393;SDS011;36308;46.312;25.288;2023-04-24T00:58:52;6.00;;;3.80;;
50393;SDS011;36308;46.312;25.288;2023-04-24T01:01:21;5.95;;;4.20;;
50393;SDS011;36308;46.312;25.288;2023-04-24T01:03:51;6.68;;;4.15;;
50393;SDS011;36308;46.312;25.288;2023-04-24T01:06:18;6.47;;;3.92;;
50393;SDS011;36308;46.312;25.288;2023-04-24T01:08:44;5.53;;;4.00;;
50393;SDS011;36308;46.312;25.288;2023-04-24T01:11:11;7.90;;;3.83;;
50393;SDS011;36308;46.312;25.288;2023-04-24T01:13:37;5.55;;;3.95;;
50393;SDS011;36308;46.312;25.288;2023-04-24T01:16:03;6.13;;;4.10;;
50393;SDS011;36308;46.312;25.288;2023-04-24T01:18:29;5.07;;;3.42;;
50393;SDS011;36308;46.312;25.288;2023-04-24T01:20:57;5.97;;;3.75;;
50393;SDS011;36308;46.312;25.288;2023-04-24T01:23:23;6.82;;;4.00;;
50393;SDS011;36308;46.312;25.288;2023-04-24T01:25:49;5.07;;;3.47;;
50393;SDS011;36308;46.312;25.288;2023-04-24T01:28:16;6.45;;;3.85;;
50393;SDS011;36308;46.312;25.288;2023-04-24T01:30:42;5.03;;;3.72;;
50393;SDS011;36308;46.312;25.288;2023-04-24T01:33:08;5.65;;;3.88;;
50393;SDS011;36308;46.312;25.288;2023-04-24T01:35:34;5.90;;;3.70;;
50393;SDS011;36308;46.312;25.288;2023-04-24T01:38:01;4.80;;;3.53;;
50393;SDS011;36308;46.312;25.288;2023-04-24T01:40:27;4.88;;;3.50;;
50393;SDS011;36308;46.312;25.288;2023-04-24T01:42:52;7.00;;;3.38;;
50393;SDS011;36308;46.312;25.288;2023-04-24T01:45:18;5.38;;;3.70;;
50393;SDS011;36308;46.312;25.288;2023-04-24T01:47:43;5.50;;;3.78;;
50393;SDS011;36308;46.312;25.288;2023-04-24T01:50:11;5.78;;;3.63;;
50393;SDS011;36308;46.312;25.288;2023-04-24T01:52:37;5.82;;;3.90;;
50393;SDS011;36308;46.312;25.288;2023-04-24T01:55:03;6.68;;;4.05;;
50393;SDS011;36308;46.312;25.288;2023-04-24T01:57:29;6.70;;;3.60;;
50393;SDS011;36308;46.312;25.288;2023-04-24T01:59:56;5.07;;;3.80;;
50393;SDS011;36308;46.312;25.288;2023-04-24T02:02:22;5.15;;;3.70;;
50393;SDS011;36308;46.312;25.288;2023-04-24T02:04:49;6.85;;;4.50;;
50393;SDS011;36308;46.312;25.288;2023-04-24T02:07:15;9.10;;;5.47;;
50393;SDS011;36308;46.312;25.288;2023-04-24T02:09:40;7.63;;;4.68;;
50393;SDS011;36308;46.312;25.288;2023-04-24T02:12:06;9.85;;;6.55;;
50393;SDS011;36308;46.312;25.288;2023-04-24T02:14:31;34.15;;;24.88;;
50393;SDS011;36308;46.312;25.288;2023-04-24T02:16:57;13.65;;;9.50;;
50393;SDS011;36308;46.312;25.288;2023-04-24T02:19:22;9.57;;;5.50;;
50393;SDS011;36308;46.312;25.288;2023-04-24T02:21:48;11.65;;;8.38;;
50393;SDS011;36308;46.312;25.288;2023-04-24T02:24:13;14.55;;;10.15;;
50393;SDS011;36308;46.312;25.288;2023-04-24T02:26:39;14.50;;;7.65;;
50393;SDS011;36308;46.312;25.288;2023-04-24T02:29:05;8.65;;;4.32;;
50393;SDS011;36308;46.312;25.288;2023-04-24T02:31:30;11.40;;;4.90;;
50393;SDS011;36308;46.312;25.288;2023-04-24T02:33:56;7.75;;;4.35;;
50393;SDS011;36308;46.312;25.288;2023-04-24T02:36:21;10.68;;;6.85;;
50393;SDS011;36308;46.312;25.288;2023-04-24T02:38:47;14.73;;;10.18;;
50393;SDS011;36308;46.312;25.288;2023-04-24T02:41:12;20.77;;;15.68;;
50393;SDS011;36308;46.312;25.288;2023-04-24T02:43:38;21.65;;;14.95;;
50393;SDS011;36308;46.312;25.288;2023-04-24T02:46:03;31.33;;;18.65;;
50393;SDS011;36308;46.312;25.288;2023-04-24T02:48:29;26.58;;;14.80;;
50393;SDS011;36308;46.312;25.288;2023-04-24T02:50:55;13.38;;;7.95;;
50393;SDS011;36308;46.312;25.288;2023-04-24T02:53:20;9.32;;;5.80;;
50393;SDS011;36308;46.312;25.288;2023-04-24T02:55:46;12.00;;;5.93;;
50393;SDS011;36308;46.312;25.288;2023-04-24T02:58:11;14.55;;;6.15;;
50393;SDS011;36308;46.312;25.288;2023-04-24T03:00:38;8.20;;;5.32;;
50393;SDS011;36308;46.312;25.288;2023-04-24T03:03:04;9.43;;;4.70;;
50393;SDS011;36308;46.312;25.288;2023-04-24T03:05:30;7.85;;;4.40;;
50393;SDS011;36308;46.312;25.288;2023-04-24T03:07:56;9.00;;;4.63;;
50393;SDS011;36308;46.312;25.288;2023-04-24T03:10:21;10.40;;;4.30;;
50393;SDS011;36308;46.312;25.288;2023-04-24T03:12:47;7.65;;;4.60;;
50393;SDS011;36308;46.312;25.288;2023-04-24T03:15:13;7.38;;;4.68;;
50393;SDS011;36308;46.312;25.288;2023-04-24T03:17:39;8.25;;;4.90;;
50393;SDS011;36308;46.312;25.288;2023-04-24T03:20:04;10.35;;;8.23;;
50393;SDS011;36308;46.312;25.288;2023-04-24T03:22:31;12.55;;;10.23;;
50393;SDS011;36308;46.312;25.288;2023-04-24T03:24:57;13.90;;;8.85;;
50393;SDS011;36308;46.312;25.288;2023-04-24T03:27:23;13.27;;;6.88;;
50393;SDS011;36308;46.312;25.288;2023-04-24T03:29:49;9.27;;;6.18;;
50393;SDS011;36308;46.312;25.288;2023-04-24T03:32:19;8.30;;;6.75;;
50393;SDS011;36308;46.312;25.288;2023-04-24T03:34:44;13.93;;;11.88;;
50393;SDS011;36308;46.312;25.288;2023-04-24T03:37:10;12.50;;;9.43;;
50393;SDS011;36308;46.312;25.288;2023-04-24T03:39:35;13.48;;;9.40;;
50393;SDS011;36308;46.312;25.288;2023-04-24T03:42:01;11.65;;;10.10;;
50393;SDS011;36308;46.312;25.288;2023-04-24T03:44:27;11.80;;;9.50;;
50393;SDS011;36308;46.312;25.288;2023-04-24T03:46:52;15.70;;;10.48;;
50393;SDS011;36308;46.312;25.288;2023-04-24T03:49:17;12.55;;;9.20;;
50393;SDS011;36308;46.312;25.288;2023-04-24T03:51:43;14.90;;;9.20;;
50393;SDS011;36308;46.312;25.288;2023-04-24T03:54:09;13.93;;;9.65;;
50393;SDS011;36308;46.312;25.288;2023-04-24T03:56:35;17.98;;;10.60;;
50393;SDS011;36308;46.312;25.288;2023-04-24T03:59:00;17.42;;;10.50;;
50393;SDS011;36308;46.312;25.288;2023-04-24T04:01:26;21.60;;;9.07;;
50393;SDS011;36308;46.312;25.288;2023-04-24T04:03:53;22.73;;;9.23;;
50393;SDS011;36308;46.312;25.288;2023-04-24T04:06:19;19.88;;;9.80;;
50393;SDS011;36308;46.312;25.288;2023-04-24T04:08:46;16.00;;;8.80;;
50393;SDS011;36308;46.312;25.288;2023-04-24T04:11:11;16.85;;;9.77;;
50393;SDS011;36308;46.312;25.288;2023-04-24T04:13:37;15.52;;;9.73;;
50393;SDS011;36308;46.312;25.288;2023-04-24T04:16:03;14.70;;;10.25;;
50393;SDS011;36308;46.312;25.288;2023-04-24T04:18:28;17.95;;;11.43;;
50393;SDS011;36308;46.312;25.288;2023-04-24T04:20:54;20.88;;;12.80;;
50393;SDS011;36308;46.312;25.288;2023-04-24T04:23:20;20.80;;;14.68;;
50393;SDS011;36308;46.312;25.288;2023-04-24T04:25:45;28.15;;;16.08;;
50393;SDS011;36308;46.312;25.288;2023-04-24T04:28:12;30.45;;;19.02;;
50393;SDS011;36308;46.312;25.288;2023-04-24T04:30:37;34.53;;;19.85;;
50393;SDS011;36308;46.312;25.288;2023-04-24T04:33:03;49.72;;;26.83;;
50393;SDS011;36308;46.312;25.288;2023-04-24T04:35:28;49.92;;;28.88;;
50393;SDS011;36308;46.312;25.288;2023-04-24T04:37:54;27.02;;;15.00;;
50393;SDS011;36308;46.312;25.288;2023-04-24T04:40:23;31.17;;;18.15;;
50393;SDS011;36308;46.312;25.288;2023-04-24T04:42:49;24.88;;;12.20;;
50393;SDS011;36308;46.312;25.288;2023-04-24T04:45:18;21.23;;;11.50;;
50393;SDS011;36308;46.312;25.288;2023-04-24T04:47:45;18.98;;;13.25;;
50393;SDS011;36308;46.312;25.288;2023-04-24T04:50:11;18.55;;;10.88;;
50393;SDS011;36308;46.312;25.288;2023-04-24T04:52:37;22.42;;;13.35;;
50393;SDS011;36308;46.312;25.288;2023-04-24T04:55:02;22.15;;;14.00;;
50393;SDS011;36308;46.312;25.288;2023-04-24T04:57:28;21.95;;;11.45;;
50393;SDS011;36308;46.312;25.288;2023-04-24T04:59:53;19.40;;;12.48;;
50393;SDS011;36308;46.312;25.288;2023-04-24T05:02:19;18.92;;;11.68;;
50393;SDS011;36308;46.312;25.288;2023-04-24T05:04:45;18.92;;;10.80;;
50393;SDS011;36308;46.312;25.288;2023-04-24T05:07:11;19.67;;;12.40;;
50393;SDS011;36308;46.312;25.288;2023-04-24T05:09:36;24.73;;;11.70;;
50393;SDS011;36308;46.312;25.288;2023-04-24T05:12:02;19.40;;;11.77;;
50393;SDS011;36308;46.312;25.288;2023-04-24T05:14:28;26.67;;;13.48;;
50393;SDS011;36308;46.312;25.288;2023-04-24T05:16:53;25.60;;;14.82;;
50393;SDS011;36308;46.312;25.288;2023-04-24T05:19:19;28.13;;;14.20;;
50393;SDS011;36308;46.312;25.288;2023-04-24T05:21:44;31.05;;;15.80;;
50393;SDS011;36308;46.312;25.288;2023-04-24T05:24:10;31.13;;;17.98;;
50393;SDS011;36308;46.312;25.288;2023-04-24T05:26:36;35.70;;;19.25;;
50393;SDS011;36308;46.312;25.288;2023-04-24T05:29:01;22.10;;;15.48;;
50393;SDS011;36308;46.312;25.288;2023-04-24T05:31:27;27.70;;;16.38;;
50393;SDS011;36308;46.312;25.288;2023-04-24T05:33:53;33.03;;;18.58;;
50393;SDS011;36308;46.312;25.288;2023-04-24T05:36:18;29.00;;;16.67;;
50393;SDS011;36308;46.312;25.288;2023-04-24T05:38:44;32.80;;;16.92;;
50393;SDS011;36308;46.312;25.288;2023-04-24T05:41:10;36.72;;;20.10;;
50393;SDS011;36308;46.312;25.288;2023-04-24T05:43:35;35.53;;;20.67;;
50393;SDS011;36308;46.312;25.288;2023-04-24T05:46:01;44.90;;;19.55;;
50393;SDS011;36308;46.312;25.288;2023-04-24T05:48:26;34.95;;;22.35;;
50393;SDS011;36308;46.312;25.288;2023-04-24T05:50:52;35.85;;;19.80;;
50393;SDS011;36308;46.312;25.288;2023-04-24T05:53:18;33.60;;;17.17;;
50393;SDS011;36308;46.312;25.288;2023-04-24T05:55:43;76.20;;;21.35;;
50393;SDS011;36308;46.312;25.288;2023-04-24T05:58:10;37.63;;;16.30;;
50393;SDS011;36308;46.312;25.288;2023-04-24T06:00:36;30.13;;;14.57;;
50393;SDS011;36308;46.312;25.288;2023-04-24T06:03:02;14.85;;;8.90;;
50393;SDS011;36308;46.312;25.288;2023-04-24T06:05:28;9.43;;;5.53;;
50393;SDS011;36308;46.312;25.288;2023-04-24T06:07:55;20.05;;;9.43;;
50393;SDS011;36308;46.312;25.288;2023-04-24T06:10:20;20.52;;;10.98;;
50393;SDS011;36308;46.312;25.288;2023-04-24T06:12:46;21.55;;;12.00;;
50393;SDS011;36308;46.312;25.288;2023-04-24T06:15:11;22.67;;;12.10;;
50393;SDS011;36308;46.312;25.288;2023-04-24T06:17:37;21.80;;;13.00;;
50393;SDS011;36308;46.312;25.288;2023-04-24T06:20:03;18.27;;;12.27;;
50393;SDS011;36308;46.312;25.288;2023-04-24T06:22:31;22.73;;;11.90;;
50393;SDS011;36308;46.312;25.288;2023-04-24T06:24:56;17.90;;;11.27;;
50393;SDS011;36308;46.312;25.288;2023-04-24T06:27:22;20.77;;;11.40;;
50393;SDS011;36308;46.312;25.288;2023-04-24T06:29:47;16.98;;;11.13;;
50393;SDS011;36308;46.312;25.288;2023-04-24T06:32:19;14.43;;;10.00;;
50393;SDS011;36308;46.312;25.288;2023-04-24T06:34:48;13.20;;;6.30;;
50393;SDS011;36308;46.312;25.288;2023-04-24T06:37:14;9.45;;;6.05;;
50393;SDS011;36308;46.312;25.288;2023-04-24T06:39:41;11.13;;;7.07;;
50393;SDS011;36308;46.312;25.288;2023-04-24T06:42:06;7.60;;;5.25;;
50393;SDS011;36308;46.312;25.288;2023-04-24T06:44:34;8.88;;;5.22;;
50393;SDS011;36308;46.312;25.288;2023-04-24T06:47:05;7.75;;;4.75;;
50393;SDS011;36308;46.312;25.288;2023-04-24T06:49:35;7.70;;;5.13;;
50393;SDS011;36308;46.312;25.288;2023-04-24T06:52:02;7.00;;;4.55;;
50393;SDS011;36308;46.312;25.288;2023-04-24T06:54:28;16.35;;;6.15;;
50393;SDS011;36308;46.312;25.288;2023-04-24T06:56:54;12.90;;;5.82;;
50393;SDS011;36308;46.312;25.288;2023-04-24T06:59:22;13.40;;;4.80;;
50393;SDS011;36308;46.312;25.288;2023-04-24T07:01:50;11.15;;;5.00;;
50393;SDS011;36308;46.312;25.288;2023-04-24T07:04:16;12.07;;;5.40;;
50393;SDS011;36308;46.312;25.288;2023-04-24T07:06:42;7.97;;;4.68;;
50393;SDS011;36308;46.312;25.288;2023-04-24T07:09:08;13.73;;;4.93;;
50393;SDS011;36308;46.312;25.288;2023-04-24T07:11:34;7.68;;;4.82;;
50393;SDS011;36308;46.312;25.288;2023-04-24T07:14:02;6.65;;;5.07;;
50393;SDS011;36308;46.312;25.288;2023-04-24T07:16:28;7.20;;;4.65;;
50393;SDS011;36308;46.312;25.288;2023-04-24T07:18:55;7.25;;;4.32;;
50393;SDS011;36308;46.312;25.288;2023-04-24T07:21:20;6.78;;;4.28;;
50393;SDS011;36308;46.312;25.288;2023-04-24T07:23:46;10.38;;;4.38;;
50393;SDS011;36308;46.312;25.288;2023-04-24T07:26:12;7.28;;;3.80;;
50393;SDS011;36308;46.312;25.288;2023-04-24T07:28:39;7.88;;;3.80;;
50393;SDS011;36308;46.312;25.288;2023-04-24T07:31:05;6.00;;;3.70;;
50393;SDS011;36308;46.312;25.288;2023-04-24T07:33:30;8.25;;;4.50;;
50393;SDS011;36308;46.312;25.288;2023-04-24T07:35:56;7.97;;;3.70;;
50393;SDS011;36308;46.312;25.288;2023-04-24T07:38:22;7.05;;;3.40;;
50393;SDS011;36308;46.312;25.288;2023-04-24T07:40:47;6.60;;;3.20;;
50393;SDS011;36308;46.312;25.288;2023-04-24T07:43:14;9.40;;;3.47;;
50393;SDS011;36308;46.312;25.288;2023-04-24T07:45:40;4.75;;;3.20;;
50393;SDS011;36308;46.312;25.288;2023-04-24T07:48:06;5.88;;;3.67;;
50393;SDS011;36308;46.312;25.288;2023-04-24T07:50:34;6.78;;;3.08;;
50393;SDS011;36308;46.312;25.288;2023-04-24T07:53:00;4.63;;;3.40;;
50393;SDS011;36308;46.312;25.288;2023-04-24T07:55:26;6.97;;;3.20;;
50393;SDS011;36308;46.312;25.288;2023-04-24T07:57:51;5.88;;;3.08;;
50393;SDS011;36308;46.312;25.288;2023-04-24T08:03:01;5.78;;;3.42;;
50393;SDS011;36308;46.312;25.288;2023-04-24T08:05:27;4.85;;;3.17;;
50393;SDS011;36308;46.312;25.288;2023-04-24T08:07:53;4.53;;;3.25;;
50393;SDS011;36308;46.312;25.288;2023-04-24T08:10:20;5.20;;;3.00;;
50393;SDS011;36308;46.312;25.288;2023-04-24T08:12:46;4.47;;;2.97;;
50393;SDS011;36308;46.312;25.288;2023-04-24T08:15:12;3.55;;;2.80;;
50393;SDS011;36308;46.312;25.288;2023-04-24T08:17:38;4.95;;;3.30;;
50393;SDS011;36308;46.312;25.288;2023-04-24T08:20:03;3.97;;;3.13;;
50393;SDS011;36308;46.312;25.288;2023-04-24T08:22:30;6.00;;;3.45;;
50393;SDS011;36308;46.312;25.288;2023-04-24T08:24:56;5.63;;;3.42;;
50393;SDS011;36308;46.312;25.288;2023-04-24T08:27:22;4.47;;;3.13;;
50393;SDS011;36308;46.312;25.288;2023-04-24T08:29:49;7.97;;;3.50;;
50393;SDS011;36308;46.312;25.288;2023-04-24T08:32:14;6.30;;;3.50;;
50393;SDS011;36308;46.312;25.288;2023-04-24T08:34:40;4.55;;;3.28;;
50393;SDS011;36308;46.312;25.288;2023-04-24T08:37:06;4.93;;;3.30;;
50393;SDS011;36308;46.312;25.288;2023-04-24T08:39:31;5.13;;;3.17;;
50393;SDS011;36308;46.312;25.288;2023-04-24T08:41:57;6.95;;;3.38;;
50393;SDS011;36308;46.312;25.288;2023-04-24T08:44:30;8.60;;;3.40;;
50393;SDS011;36308;46.312;25.288;2023-04-24T08:46:57;6.45;;;3.42;;
50393;SDS011;36308;46.312;25.288;2023-04-24T08:49:23;5.70;;;3.20;;
50393;SDS011;36308;46.312;25.288;2023-04-24T08:51:50;11.07;;;3.15;;
50393;SDS011;36308;46.312;25.288;2023-04-24T08:54:18;6.72;;;3.40;;
50393;SDS011;36308;46.312;25.288;2023-04-24T08:56:44;5.80;;;3.78;;
50393;SDS011;36308;46.312;25.288;2023-04-24T08:59:10;6.78;;;3.20;;
50393;SDS011;36308;46.312;25.288;2023-04-24T09:01:37;5.18;;;3.42;;
50393;SDS011;36308;46.312;25.288;2023-04-24T09:04:04;6.68;;;3.60;;
50393;SDS011;36308;46.312;25.288;2023-04-24T09:06:32;6.28;;;2.95;;
50393;SDS011;36308;46.312;25.288;2023-04-24T09:09:02;6.10;;;3.08;;
50393;SDS011;36308;46.312;25.288;2023-04-24T09:11:29;4.47;;;2.83;;
50393;SDS011;36308;46.312;25.288;2023-04-24T09:13:56;4.28;;;3.13;;
50393;SDS011;36308;46.312;25.288;2023-04-24T09:16:23;4.85;;;3.42;;
50393;SDS011;36308;46.312;25.288;2023-04-24T09:18:50;8.05;;;2.90;;
50393;SDS011;36308;46.312;25.288;2023-04-24T09:21:17;8.75;;;3.42;;
50393;SDS011;36308;46.312;25.288;2023-04-24T09:23:46;4.38;;;3.10;;
50393;SDS011;36308;46.312;25.288;2023-04-24T09:26:11;4.28;;;3.13;;
50393;SDS011;36308;46.312;25.288;2023-04-24T09:28:39;5.05;;;3.08;;
50393;SDS011;36308;46.312;25.288;2023-04-24T09:33:39;6.50;;;3.20;;
50393;SDS011;36308;46.312;25.288;2023-04-24T09:36:05;4.55;;;2.90;;
50393;SDS011;36308;46.312;25.288;2023-04-24T09:38:37;4.95;;;3.10;;
50393;SDS011;36308;46.312;25.288;2023-04-24T09:41:07;9.20;;;3.80;;
50393;SDS011;36308;46.312;25.288;2023-04-24T09:43:33;5.43;;;3.47;;
50393;SDS011;36308;46.312;25.288;2023-04-24T09:46:03;6.78;;;3.08;;
50393;SDS011;36308;46.312;25.288;2023-04-24T09:48:31;4.10;;;2.83;;
50393;SDS011;36308;46.312;25.288;2023-04-24T09:50:58;7.70;;;3.63;;
50393;SDS011;36308;46.312;25.288;2023-04-24T09:53:24;5.68;;;3.22;;
50393;SDS011;36308;46.312;25.288;2023-04-24T09:55:50;6.40;;;3.28;;
50393;SDS011;36308;46.312;25.288;2023-04-24T09:58:17;4.10;;;3.25;;
50393;SDS011;36308;46.312;25.288;2023-04-24T10:00:42;5.25;;;3.40;;
50393;SDS011;36308;46.312;25.288;2023-04-24T10:03:11;4.93;;;3.28;;
50393;SDS011;36308;46.312;25.288;2023-04-24T10:05:37;5.15;;;3.13;;
50393;SDS011;36308;46.312;25.288;2023-04-24T10:08:08;5.30;;;3.28;;
50393;SDS011;36308;46.312;25.288;2023-04-24T10:10:42;6.43;;;3.47;;
50393;SDS011;36308;46.312;25.288;2023-04-24T10:15:36;4.07;;;3.15;;
50393;SDS011;36308;46.312;25.288;2023-04-24T10:18:02;8.18;;;3.63;;
50393;SDS011;36308;46.312;25.288;2023-04-24T10:20:32;4.97;;;3.30;;
50393;SDS011;36308;46.312;25.288;2023-04-24T10:22:59;5.30;;;2.97;;
50393;SDS011;36308;46.312;25.288;2023-04-24T10:25:26;4.22;;;3.08;;
50393;SDS011;36308;46.312;25.288;2023-04-24T10:27:54;4.18;;;3.00;;
50393;SDS011;36308;46.312;25.288;2023-04-24T10:30:29;3.75;;;2.80;;
50393;SDS011;36308;46.312;25.288;2023-04-24T10:33:00;8.60;;;3.20;;
50393;SDS011;36308;46.312;25.288;2023-04-24T10:35:34;5.60;;;3.00;;
50393;SDS011;36308;46.312;25.288;2023-04-24T10:38:09;5.28;;;2.58;;
50393;SDS011;36308;46.312;25.288;2023-04-24T10:40:37;3.85;;;2.60;;
50393;SDS011;36308;46.312;25.288;2023-04-24T10:43:06;8.10;;;2.83;;
50393;SDS011;36308;46.312;25.288;2023-04-24T10:46:03;7.57;;;3.22;;
50393;SDS011;36308;46.312;25.288;2023-04-24T10:48:31;6.32;;;2.67;;
50393;SDS011;36308;46.312;25.288;2023-04-24T10:50:57;5.35;;;2.70;;
50393;SDS011;36308;46.312;25.288;2023-04-24T10:53:24;4.72;;;2.65;;
50393;SDS011;36308;46.312;25.288;2023-04-24T10:58:35;7.43;;;3.08;;
50393;SDS011;36308;46.312;25.288;2023-04-24T11:01:03;5.30;;;3.30;;
50393;SDS011;36308;46.312;25.288;2023-04-24T11:03:29;7.50;;;3.40;;
50393;SDS011;36308;46.312;25.288;2023-04-24T11:06:00;3.88;;;2.40;;
50393;SDS011;36308;46.312;25.288;2023-04-24T11:11:03;5.35;;;3.28;;
50393;SDS011;36308;46.312;25.288;2023-04-24T11:16:21;6.65;;;3.47;;
50393;SDS011;36308;46.312;25.288;2023-04-24T11:26:58;4.10;;;2.30;;
50393;SDS011;36308;46.312;25.288;2023-04-24T11:29:39;4.85;;;2.55;;
50393;SDS011;36308;46.312;25.288;2023-04-24T11:34:50;3.63;;;2.42;;
50393;SDS011;36308;46.312;25.288;2023-04-24T11:37:17;5.30;;;2.60;;
50393;SDS011;36308;46.312;25.288;2023-04-24T11:39:43;4.53;;;2.95;;
50393;SDS011;36308;46.312;25.288;2023-04-24T11:42:09;3.58;;;2.40;;
50393;SDS011;36308;46.312;25.288;2023-04-24T11:44:34;6.18;;;2.60;;
50393;SDS011;36308;46.312;25.288;2023-04-24T11:47:04;4.57;;;2.33;;
50393;SDS011;36308;46.312;25.288;2023-04-24T11:49:30;6.03;;;2.75;;
50393;SDS011;36308;46.312;25.288;2023-04-24T11:51:56;4.65;;;2.90;;
50393;SDS011;36308;46.312;25.288;2023-04-24T11:54:22;5.15;;;2.40;;
50393;SDS011;36308;46.312;25.288;2023-04-24T11:56:47;5.65;;;2.88;;
50393;SDS011;36308;46.312;25.288;2023-04-24T11:59:14;6.18;;;2.63;;
50393;SDS011;36308;46.312;25.288;2023-04-24T12:01:43;4.88;;;2.70;;
50393;SDS011;36308;46.312;25.288;2023-04-24T12:04:12;7.63;;;2.80;;
50393;SDS011;36308;46.312;25.288;2023-04-24T12:06:38;5.25;;;2.72;;
50393;SDS011;36308;46.312;25.288;2023-04-24T12:09:04;5.43;;;2.78;;
50393;SDS011;36308;46.312;25.288;2023-04-24T12:11:29;3.70;;;2.85;;
50393;SDS011;36308;46.312;25.288;2023-04-24T12:13:55;4.50;;;2.45;;
50393;SDS011;36308;46.312;25.288;2023-04-24T12:16:21;4.80;;;2.72;;
50393;SDS011;36308;46.312;25.288;2023-04-24T12:18:47;9.20;;;2.83;;
50393;SDS011;36308;46.312;25.288;2023-04-24T12:21:19;7.60;;;3.30;;
50393;SDS011;36308;46.312;25.288;2023-04-24T12:23:46;4.57;;;3.03;;
50393;SDS011;36308;46.312;25.288;2023-04-24T12:26:21;3.80;;;2.90;;
50393;SDS011;36308;46.312;25.288;2023-04-24T12:28:48;4.82;;;3.25;;
50393;SDS011;36308;46.312;25.288;2023-04-24T12:31:15;6.75;;;3.05;;
50393;SDS011;36308;46.312;25.288;2023-04-24T12:33:41;7.28;;;3.33;;
50393;SDS011;36308;46.312;25.288;2023-04-24T12:36:09;6.43;;;2.72;;
50393;SDS011;36308;46.312;25.288;2023-04-24T12:38:37;4.13;;;2.90;;
50393;SDS011;36308;46.312;25.288;2023-04-24T12:41:09;7.05;;;2.88;;
50393;SDS011;36308;46.312;25.288;2023-04-24T12:43:36;8.70;;;3.92;;
50393;SDS011;36308;46.312;25.288;2023-04-24T12:46:02;4.20;;;2.88;;
50393;SDS011;36308;46.312;25.288;2023-04-24T12:48:28;7.30;;;3.28;;
50393;SDS011;36308;46.312;25.288;2023-04-24T12:50:56;7.60;;;3.17;;
50393;SDS011;36308;46.312;25.288;2023-04-24T12:53:26;6.32;;;3.13;;
50393;SDS011;36308;46.312;25.288;2023-04-24T12:55:51;5.10;;;3.15;;
50393;SDS011;36308;46.312;25.288;2023-04-24T12:58:19;4.47;;;2.92;;
50393;SDS011;36308;46.312;25.288;2023-04-24T13:00:45;7.00;;;3.13;;
50393;SDS011;36308;46.312;25.288;2023-04-24T13:03:11;7.75;;;3.25;;
50393;SDS011;36308;46.312;25.288;2023-04-24T13:05:37;5.07;;;2.53;;
50393;SDS011;36308;46.312;25.288;2023-04-24T13:08:03;8.60;;;2.88;;
50393;SDS011;36308;46.312;25.288;2023-04-24T13:10:28;9.13;;;3.38;;
50393;SDS011;36308;46.312;25.288;2023-04-24T13:12:54;7.20;;;3.45;;
50393;SDS011;36308;46.312;25.288;2023-04-24T13:15:20;6.55;;;3.50;;
50393;SDS011;36308;46.312;25.288;2023-04-24T13:17:45;8.00;;;3.17;;
50393;SDS011;36308;46.312;25.288;2023-04-24T13:20:11;7.05;;;4.15;;
50393;SDS011;36308;46.312;25.288;2023-04-24T13:22:36;4.55;;;3.50;;
50393;SDS011;36308;46.312;25.288;2023-04-24T13:25:03;5.38;;;3.17;;
50393;SDS011;36308;46.312;25.288;2023-04-24T13:27:32;8.27;;;3.20;;
50393;SDS011;36308;46.312;25.288;2023-04-24T13:29:57;5.85;;;3.53;;
50393;SDS011;36308;46.312;25.288;2023-04-24T13:32:23;4.85;;;3.42;;
50393;SDS011;36308;46.312;25.288;2023-04-24T13:34:48;7.15;;;3.50;;
50393;SDS011;36308;46.312;25.288;2023-04-24T13:37:14;5.90;;;3.67;;
50393;SDS011;36308;46.312;25.288;2023-04-24T13:39:40;6.05;;;2.88;;
50393;SDS011;36308;46.312;25.288;2023-04-24T13:42:06;8.80;;;4.00;;
50393;SDS011;36308;46.312;25.288;2023-04-24T13:44:31;6.25;;;3.38;;
50393;SDS011;36308;46.312;25.288;2023-04-24T13:46:57;9.32;;;6.15;;
50393;SDS011;36308;46.312;25.288;2023-04-24T13:49:23;7.70;;;3.80;;
50393;SDS011;36308;46.312;25.288;2023-04-24T13:51:50;6.32;;;3.10;;
50393;SDS011;36308;46.312;25.288;2023-04-24T13:54:17;6.80;;;4.05;;
50393;SDS011;36308;46.312;25.288;2023-04-24T13:56:42;8.57;;;4.28;;
50393;SDS011;36308;46.312;25.288;2023-04-24T13:59:08;6.85;;;3.20;;
50393;SDS011;36308;46.312;25.288;2023-04-24T14:01:34;5.18;;;3.67;;
50393;SDS011;36308;46.312;25.288;2023-04-24T14:04:00;6.03;;;3.25;;
50393;SDS011;36308;46.312;25.288;2023-04-24T14:06:25;6.43;;;3.20;;
50393;SDS011;36308;46.312;25.288;2023-04-24T14:08:51;5.32;;;3.10;;
50393;SDS011;36308;46.312;25.288;2023-04-24T14:11:17;6.38;;;3.17;;
50393;SDS011;36308;46.312;25.288;2023-04-24T14:13:44;5.93;;;3.38;;
50393;SDS011;36308;46.312;25.288;2023-04-24T14:16:10;7.68;;;3.65;;
50393;SDS011;36308;46.312;25.288;2023-04-24T14:18:36;6.28;;;3.83;;
50393;SDS011;36308;46.312;25.288;2023-04-24T14:21:03;4.85;;;3.22;;
50393;SDS011;36308;46.312;25.288;2023-04-24T14:23:28;5.80;;;3.08;;
50393;SDS011;36308;46.312;25.288;2023-04-24T14:25:54;8.98;;;3.33;;
50393;SDS011;36308;46.312;25.288;2023-04-24T14:28:20;4.57;;;3.10;;
50393;SDS011;36308;46.312;25.288;2023-04-24T14:30:49;4.72;;;3.15;;
50393;SDS011;36308;46.312;25.288;2023-04-24T14:33:15;6.18;;;2.80;;
50393;SDS011;36308;46.312;25.288;2023-04-24T14:35:41;6.80;;;4.22;;
50393;SDS011;36308;46.312;25.288;2023-04-24T14:38:10;7.35;;;4.43;;
50393;SDS011;36308;46.312;25.288;2023-04-24T14:40:36;9.65;;;4.68;;
50393;SDS011;36308;46.312;25.288;2023-04-24T14:43:02;14.38;;;5.10;;
50393;SDS011;36308;46.312;25.288;2023-04-24T14:45:28;10.05;;;4.10;;
50393;SDS011;36308;46.312;25.288;2023-04-24T14:47:53;17.25;;;9.85;;
50393;SDS011;36308;46.312;25.288;2023-04-24T14:50:20;7.18;;;4.47;;